sensor_id;sensor_type;location;lat;lon;timestamp;P1;durP1;ratioP1;P2;durP2;ratioP2
79570;SDS011;69034;49.444;7.758;2023-04-25T00:03:00;2.80;;;1.40;;
79570;SDS011;69034;49.444;7.758;2023-04-25T00:07:01;13.20;;;2.40;;
79570;SDS011;69034;49.444;7.758;2023-04-25T00:11:01;3.20;;;1.58;;
79570;SDS011;69034;49.444;7.758;2023-04-25T00:15:02;4.47;;;2.03;;
79570;SDS011;69034;49.444;7.758;2023-04-25T00:19:03;6.40;;;2.55;;
79570;SDS011;69034;49.444;7.758;2023-04-25T00:23:04;4.57;;;2.63;;
79570;SDS011;69034;49.444;7.758;2023-04-25T00:27:05;5.55;;;2.28;;
79570;SDS011;69034;49.444;7.758;2023-04-25T00:31:06;4.65;;;1.95;;
79570;SDS011;69034;49.444;7.758;2023-04-25T00:35:08;5.50;;;2.67;;
79570;SDS011;69034;49.444;7.758;2023-04-25T00:39:09;5.20;;;3.13;;
79570;SDS011;69034;49.444;7.758;2023-04-25T00:43:10;3.90;;;1.95;;
79570;SDS011;69034;49.444;7.758;2023-04-25T00:47:11;3.40;;;1.40;;
79570;SDS011;69034;49.444;7.758;2023-04-25T00:51:21;8.13;;;2.75;;
79570;SDS011;69034;49.444;7.758;2023-04-25T00:55:22;3.63;;;1.52;;
79570;SDS011;69034;49.444;7.758;2023-04-25T00:59:23;5.50;;;2.45;;
79570;SDS011;69034;49.444;7.758;2023-04-25T01:03:24;4.57;;;2.20;;
79570;SDS011;69034;49.444;7.758;2023-04-25T01:07:25;5.85;;;2.50;;
79570;SDS011;69034;49.444;7.758;2023-04-25T01:11:26;5.97;;;2.33;;
79570;SDS011;69034;49.444;7.758;2023-04-25T01:15:27;8.52;;;2.72;;
79570;SDS011;69034;49.444;7.758;2023-04-25T01:19:28;4.30;;;2.05;;
79570;SDS011;69034;49.444;7.758;2023-04-25T01:23:29;4.35;;;2.20;;
79570;SDS011;69034;49.444;7.758;2023-04-25T01:27:33;4.28;;;2.40;;
79570;SDS011;69034;49.444;7.758;2023-04-25T01:31:33;2.75;;;1.42;;
79570;SDS011;69034;49.444;7.758;2023-04-25T01:35:35;4.40;;;2.30;;
79570;SDS011;69034;49.444;7.758;2023-04-25T01:39:35;4.85;;;2.15;;
79570;SDS011;69034;49.444;7.758;2023-04-25T01:43:36;4.10;;;2.08;;
79570;SDS011;69034;49.444;7.758;2023-04-25T01:47:37;5.35;;;1.80;;
79570;SDS011;69034;49.444;7.758;2023-04-25T01:51:39;3.70;;;1.92;;
79570;SDS011;69034;49.444;7.758;2023-04-25T01:55:40;5.25;;;2.08;;
79570;SDS011;69034;49.444;7.758;2023-04-25T01:59:41;3.50;;;1.63;;
79570;SDS011;69034;49.444;7.758;2023-04-25T02:03:43;2.72;;;1.52;;
79570;SDS011;69034;49.444;7.758;2023-04-25T02:07:44;3.50;;;1.70;;
79570;SDS011;69034;49.444;7.758;2023-04-25T02:11:44;3.58;;;1.70;;
79570;SDS011;69034;49.444;7.758;2023-04-25T02:15:45;3.85;;;1.60;;
79570;SDS011;69034;49.444;7.758;2023-04-25T02:19:45;3.53;;;1.55;;
79570;SDS011;69034;49.444;7.758;2023-04-25T02:23:46;3.72;;;1.90;;
79570;SDS011;69034;49.444;7.758;2023-04-25T02:27:48;3.53;;;1.65;;
79570;SDS011;69034;49.444;7.758;2023-04-25T02:31:50;5.07;;;1.85;;
79570;SDS011;69034;49.444;7.758;2023-04-25T02:35:50;4.30;;;1.73;;
79570;SDS011;69034;49.444;7.758;2023-04-25T02:39:51;4.82;;;1.67;;
79570;SDS011;69034;49.444;7.758;2023-04-25T02:43:52;2.95;;;1.45;;
79570;SDS011;69034;49.444;7.758;2023-04-25T02:47:52;2.65;;;1.17;;
79570;SDS011;69034;49.444;7.758;2023-04-25T02:51:53;3.83;;;1.77;;
79570;SDS011;69034;49.444;7.758;2023-04-25T02:55:53;2.38;;;1.23;;
79570;SDS011;69034;49.444;7.758;2023-04-25T02:59:54;5.03;;;2.13;;
79570;SDS011;69034;49.444;7.758;2023-04-25T03:03:55;4.38;;;1.73;;
79570;SDS011;69034;49.444;7.758;2023-04-25T03:07:55;3.38;;;1.38;;
79570;SDS011;69034;49.444;7.758;2023-04-25T03:11:56;2.75;;;1.40;;
79570;SDS011;69034;49.444;7.758;2023-04-25T03:20:54;3.67;;;1.63;;
79570;SDS011;69034;49.444;7.758;2023-04-25T03:24:54;2.95;;;1.30;;
79570;SDS011;69034;49.444;7.758;2023-04-25T03:28:55;3.55;;;1.33;;
79570;SDS011;69034;49.444;7.758;2023-04-25T03:32:56;3.90;;;1.98;;
79570;SDS011;69034;49.444;7.758;2023-04-25T03:36:56;5.20;;;2.45;;
79570;SDS011;69034;49.444;7.758;2023-04-25T03:40:57;2.85;;;1.23;;
79570;SDS011;69034;49.444;7.758;2023-04-25T03:44:58;4.10;;;1.70;;
79570;SDS011;69034;49.444;7.758;2023-04-25T03:48:58;5.60;;;1.73;;
79570;SDS011;69034;49.444;7.758;2023-04-25T03:52:59;3.05;;;1.52;;
79570;SDS011;69034;49.444;7.758;2023-04-25T03:56:59;3.78;;;2.00;;
79570;SDS011;69034;49.444;7.758;2023-04-25T04:01:00;7.85;;;2.92;;
79570;SDS011;69034;49.444;7.758;2023-04-25T04:05:03;3.25;;;1.48;;
79570;SDS011;69034;49.444;7.758;2023-04-25T04:09:05;3.20;;;1.35;;
79570;SDS011;69034;49.444;7.758;2023-04-25T04:13:09;4.13;;;2.08;;
79570;SDS011;69034;49.444;7.758;2023-04-25T04:17:10;4.65;;;2.20;;
79570;SDS011;69034;49.444;7.758;2023-04-25T04:21:11;8.13;;;3.45;;
79570;SDS011;69034;49.444;7.758;2023-04-25T04:25:11;5.53;;;2.40;;
79570;SDS011;69034;49.444;7.758;2023-04-25T04:29:12;3.97;;;2.47;;
79570;SDS011;69034;49.444;7.758;2023-04-25T04:33:20;2.75;;;1.17;;
79570;SDS011;69034;49.444;7.758;2023-04-25T04:37:23;5.97;;;2.75;;
79570;SDS011;69034;49.444;7.758;2023-04-25T04:41:24;6.05;;;3.00;;
79570;SDS011;69034;49.444;7.758;2023-04-25T04:45:24;4.60;;;2.15;;
79570;SDS011;69034;49.444;7.758;2023-04-25T04:49:25;4.00;;;1.98;;
79570;SDS011;69034;49.444;7.758;2023-04-25T04:53:26;6.70;;;3.30;;
79570;SDS011;69034;49.444;7.758;2023-04-25T04:57:27;7.72;;;3.45;;
79570;SDS011;69034;49.444;7.758;2023-04-25T05:01:28;6.35;;;3.50;;
79570;SDS011;69034;49.444;7.758;2023-04-25T05:05:32;3.83;;;1.77;;
79570;SDS011;69034;49.444;7.758;2023-04-25T05:09:33;7.10;;;3.60;;
79570;SDS011;69034;49.444;7.758;2023-04-25T05:13:33;7.60;;;4.20;;
79570;SDS011;69034;49.444;7.758;2023-04-25T05:17:34;8.57;;;3.05;;
79570;SDS011;69034;49.444;7.758;2023-04-25T05:21:35;5.88;;;2.10;;
79570;SDS011;69034;49.444;7.758;2023-04-25T05:25:35;4.82;;;2.35;;
79570;SDS011;69034;49.444;7.758;2023-04-25T05:29:36;5.65;;;3.38;;
79570;SDS011;69034;49.444;7.758;2023-04-25T05:33:37;4.38;;;1.75;;
79570;SDS011;69034;49.444;7.758;2023-04-25T05:37:37;4.80;;;2.95;;
79570;SDS011;69034;49.444;7.758;2023-04-25T05:41:38;4.05;;;2.13;;
79570;SDS011;69034;49.444;7.758;2023-04-25T05:45:39;4.20;;;2.25;;
79570;SDS011;69034;49.444;7.758;2023-04-25T05:49:40;5.72;;;2.90;;
79570;SDS011;69034;49.444;7.758;2023-04-25T05:53:41;8.90;;;4.63;;
79570;SDS011;69034;49.444;7.758;2023-04-25T05:57:42;5.32;;;2.80;;
79570;SDS011;69034;49.444;7.758;2023-04-25T06:01:45;5.25;;;2.70;;
79570;SDS011;69034;49.444;7.758;2023-04-25T06:05:46;9.35;;;4.95;;
79570;SDS011;69034;49.444;7.758;2023-04-25T06:09:47;3.67;;;1.75;;
79570;SDS011;69034;49.444;7.758;2023-04-25T06:13:49;9.38;;;4.63;;
79570;SDS011;69034;49.444;7.758;2023-04-25T06:17:49;6.50;;;3.55;;
79570;SDS011;69034;49.444;7.758;2023-04-25T06:21:50;7.25;;;3.25;;
79570;SDS011;69034;49.444;7.758;2023-04-25T06:25:51;9.18;;;5.30;;
79570;SDS011;69034;49.444;7.758;2023-04-25T06:29:51;13.57;;;5.30;;
79570;SDS011;69034;49.444;7.758;2023-04-25T06:33:52;10.98;;;5.45;;
79570;SDS011;69034;49.444;7.758;2023-04-25T06:37:54;7.47;;;3.65;;
79570;SDS011;69034;49.444;7.758;2023-04-25T06:41:55;10.23;;;5.03;;
79570;SDS011;69034;49.444;7.758;2023-04-25T06:45:55;10.75;;;4.60;;
79570;SDS011;69034;49.444;7.758;2023-04-25T06:49:56;9.05;;;4.55;;
79570;SDS011;69034;49.444;7.758;2023-04-25T06:53:57;12.07;;;6.40;;
79570;SDS011;69034;49.444;7.758;2023-04-25T06:57:57;10.50;;;5.10;;
79570;SDS011;69034;49.444;7.758;2023-04-25T07:01:58;6.55;;;3.45;;
79570;SDS011;69034;49.444;7.758;2023-04-25T07:05:58;10.57;;;5.43;;
79570;SDS011;69034;49.444;7.758;2023-04-25T07:09:59;13.57;;;5.90;;
79570;SDS011;69034;49.444;7.758;2023-04-25T07:14:00;9.60;;;5.50;;
79570;SDS011;69034;49.444;7.758;2023-04-25T07:18:01;9.25;;;4.90;;
79570;SDS011;69034;49.444;7.758;2023-04-25T07:22:02;9.40;;;3.72;;
79570;SDS011;69034;49.444;7.758;2023-04-25T07:26:02;6.85;;;3.63;;
79570;SDS011;69034;49.444;7.758;2023-04-25T07:30:03;9.75;;;3.80;;
79570;SDS011;69034;49.444;7.758;2023-04-25T07:34:04;5.15;;;2.58;;
79570;SDS011;69034;49.444;7.758;2023-04-25T07:38:05;5.85;;;3.30;;
79570;SDS011;69034;49.444;7.758;2023-04-25T07:42:06;8.93;;;4.07;;
79570;SDS011;69034;49.444;7.758;2023-04-25T07:46:10;4.95;;;2.97;;
79570;SDS011;69034;49.444;7.758;2023-04-25T07:50:11;7.55;;;4.13;;
79570;SDS011;69034;49.444;7.758;2023-04-25T07:54:14;6.80;;;3.78;;
79570;SDS011;69034;49.444;7.758;2023-04-25T07:58:15;6.65;;;4.28;;
79570;SDS011;69034;49.444;7.758;2023-04-25T08:02:21;5.72;;;3.33;;
79570;SDS011;69034;49.444;7.758;2023-04-25T08:06:21;5.45;;;3.20;;
79570;SDS011;69034;49.444;7.758;2023-04-25T08:10:22;7.32;;;3.08;;
79570;SDS011;69034;49.444;7.758;2023-04-25T08:14:23;6.10;;;3.42;;
79570;SDS011;69034;49.444;7.758;2023-04-25T08:18:23;8.35;;;3.70;;
79570;SDS011;69034;49.444;7.758;2023-04-25T08:22:24;9.95;;;3.15;;
79570;SDS011;69034;49.444;7.758;2023-04-25T08:26:25;7.95;;;3.33;;
79570;SDS011;69034;49.444;7.758;2023-04-25T08:30:25;5.95;;;2.60;;
79570;SDS011;69034;49.444;7.758;2023-04-25T08:34:27;8.30;;;3.40;;
79570;SDS011;69034;49.444;7.758;2023-04-25T08:38:27;6.53;;;2.78;;
79570;SDS011;69034;49.444;7.758;2023-04-25T08:42:28;7.25;;;2.65;;
79570;SDS011;69034;49.444;7.758;2023-04-25T08:46:31;6.65;;;2.80;;
79570;SDS011;69034;49.444;7.758;2023-04-25T08:50:32;7.10;;;3.50;;
79570;SDS011;69034;49.444;7.758;2023-04-25T08:54:34;3.47;;;1.85;;
79570;SDS011;69034;49.444;7.758;2023-04-25T08:58:35;7.63;;;2.80;;
79570;SDS011;69034;49.444;7.758;2023-04-25T09:02:41;6.28;;;3.15;;
79570;SDS011;69034;49.444;7.758;2023-04-25T09:06:43;5.43;;;2.35;;
79570;SDS011;69034;49.444;7.758;2023-04-25T09:10:43;6.40;;;2.58;;
79570;SDS011;69034;49.444;7.758;2023-04-25T09:14:46;6.68;;;2.42;;
79570;SDS011;69034;49.444;7.758;2023-04-25T09:19:05;7.10;;;2.80;;
79570;SDS011;69034;49.444;7.758;2023-04-25T09:23:06;4.70;;;2.13;;
79570;SDS011;69034;49.444;7.758;2023-04-25T09:27:08;4.90;;;1.98;;
79570;SDS011;69034;49.444;7.758;2023-04-25T09:31:10;5.78;;;3.20;;
79570;SDS011;69034;49.444;7.758;2023-04-25T09:35:11;4.10;;;2.47;;
79570;SDS011;69034;49.444;7.758;2023-04-25T09:39:28;5.15;;;2.35;;
79570;SDS011;69034;49.444;7.758;2023-04-25T09:43:28;6.32;;;3.05;;
79570;SDS011;69034;49.444;7.758;2023-04-25T09:47:29;7.22;;;2.88;;
79570;SDS011;69034;49.444;7.758;2023-04-25T09:51:30;9.25;;;4.20;;
79570;SDS011;69034;49.444;7.758;2023-04-25T09:55:31;4.72;;;2.45;;
79570;SDS011;69034;49.444;7.758;2023-04-25T09:59:33;5.60;;;2.88;;
79570;SDS011;69034;49.444;7.758;2023-04-25T10:03:38;6.13;;;2.55;;
79570;SDS011;69034;49.444;7.758;2023-04-25T10:07:39;7.30;;;2.83;;
79570;SDS011;69034;49.444;7.758;2023-04-25T10:11:41;6.03;;;2.35;;
79570;SDS011;69034;49.444;7.758;2023-04-25T10:15:42;6.47;;;3.13;;
79570;SDS011;69034;49.444;7.758;2023-04-25T10:19:43;6.65;;;2.83;;
79570;SDS011;69034;49.444;7.758;2023-04-25T10:23:44;5.80;;;2.53;;
79570;SDS011;69034;49.444;7.758;2023-04-25T10:27:45;6.35;;;2.67;;
79570;SDS011;69034;49.444;7.758;2023-04-25T10:31:46;4.60;;;1.88;;
79570;SDS011;69034;49.444;7.758;2023-04-25T10:35:49;6.35;;;3.13;;
79570;SDS011;69034;49.444;7.758;2023-04-25T10:39:50;8.75;;;2.75;;
79570;SDS011;69034;49.444;7.758;2023-04-25T10:43:58;6.15;;;2.28;;
79570;SDS011;69034;49.444;7.758;2023-04-25T10:48:00;5.18;;;1.95;;
79570;SDS011;69034;49.444;7.758;2023-04-25T10:56:17;5.53;;;2.10;;
79570;SDS011;69034;49.444;7.758;2023-04-25T11:00:22;6.00;;;2.47;;
79570;SDS011;69034;49.444;7.758;2023-04-25T11:04:30;4.93;;;2.50;;
79570;SDS011;69034;49.444;7.758;2023-04-25T11:08:47;6.43;;;2.53;;
79570;SDS011;69034;49.444;7.758;2023-04-25T11:12:49;5.82;;;1.95;;
79570;SDS011;69034;49.444;7.758;2023-04-25T11:16:53;3.50;;;1.65;;
79570;SDS011;69034;49.444;7.758;2023-04-25T11:20:58;5.32;;;2.40;;
79570;SDS011;69034;49.444;7.758;2023-04-25T11:25:00;4.88;;;1.80;;
79570;SDS011;69034;49.444;7.758;2023-04-25T11:29:05;6.13;;;2.13;;
79570;SDS011;69034;49.444;7.758;2023-04-25T11:33:05;5.18;;;2.20;;
79570;SDS011;69034;49.444;7.758;2023-04-25T11:37:06;4.30;;;2.25;;
79570;SDS011;69034;49.444;7.758;2023-04-25T11:41:06;6.60;;;2.08;;
79570;SDS011;69034;49.444;7.758;2023-04-25T11:45:07;4.55;;;2.40;;
79570;SDS011;69034;49.444;7.758;2023-04-25T11:49:09;6.20;;;2.33;;
79570;SDS011;69034;49.444;7.758;2023-04-25T11:53:10;4.50;;;2.00;;
79570;SDS011;69034;49.444;7.758;2023-04-25T11:57:11;5.10;;;2.25;;
79570;SDS011;69034;49.444;7.758;2023-04-25T12:01:12;6.18;;;2.17;;
79570;SDS011;69034;49.444;7.758;2023-04-25T12:05:25;5.30;;;1.98;;
79570;SDS011;69034;49.444;7.758;2023-04-25T12:09:31;3.85;;;2.42;;
79570;SDS011;69034;49.444;7.758;2023-04-25T12:13:32;5.47;;;2.70;;
79570;SDS011;69034;49.444;7.758;2023-04-25T12:17:33;5.82;;;2.88;;
79570;SDS011;69034;49.444;7.758;2023-04-25T12:21:34;9.57;;;3.13;;
79570;SDS011;69034;49.444;7.758;2023-04-25T12:25:38;4.32;;;2.20;;
79570;SDS011;69034;49.444;7.758;2023-04-25T12:29:51;6.93;;;3.17;;
79570;SDS011;69034;49.444;7.758;2023-04-25T12:33:53;7.47;;;2.83;;
79570;SDS011;69034;49.444;7.758;2023-04-25T12:37:53;7.68;;;3.08;;
79570;SDS011;69034;49.444;7.758;2023-04-25T12:41:54;4.32;;;2.10;;
79570;SDS011;69034;49.444;7.758;2023-04-25T12:45:55;4.43;;;2.45;;
79570;SDS011;69034;49.444;7.758;2023-04-25T12:49:56;5.40;;;2.90;;
79570;SDS011;69034;49.444;7.758;2023-04-25T12:53:56;4.03;;;2.22;;
79570;SDS011;69034;49.444;7.758;2023-04-25T12:57:57;5.78;;;2.45;;
79570;SDS011;69034;49.444;7.758;2023-04-25T13:01:58;10.57;;;2.80;;
79570;SDS011;69034;49.444;7.758;2023-04-25T13:05:58;6.97;;;2.38;;
79570;SDS011;69034;49.444;7.758;2023-04-25T13:09:59;5.57;;;2.03;;
79570;SDS011;69034;49.444;7.758;2023-04-25T13:14:00;4.45;;;2.13;;
79570;SDS011;69034;49.444;7.758;2023-04-25T13:18:02;4.63;;;1.70;;
79570;SDS011;69034;49.444;7.758;2023-04-25T13:22:05;4.30;;;1.95;;
79570;SDS011;69034;49.444;7.758;2023-04-25T13:26:06;5.57;;;2.60;;
79570;SDS011;69034;49.444;7.758;2023-04-25T13:30:06;6.75;;;2.08;;
79570;SDS011;69034;49.444;7.758;2023-04-25T13:34:07;5.22;;;2.42;;
79570;SDS011;69034;49.444;7.758;2023-04-25T13:38:08;5.18;;;1.90;;
79570;SDS011;69034;49.444;7.758;2023-04-25T13:42:09;5.07;;;1.70;;
79570;SDS011;69034;49.444;7.758;2023-04-25T13:46:09;5.30;;;1.90;;
79570;SDS011;69034;49.444;7.758;2023-04-25T13:50:11;5.05;;;2.00;;
79570;SDS011;69034;49.444;7.758;2023-04-25T13:54:13;5.07;;;1.55;;
79570;SDS011;69034;49.444;7.758;2023-04-25T13:58:14;5.20;;;1.80;;
79570;SDS011;69034;49.444;7.758;2023-04-25T14:02:14;6.70;;;2.40;;
79570;SDS011;69034;49.444;7.758;2023-04-25T14:06:16;8.30;;;1.98;;
79570;SDS011;69034;49.444;7.758;2023-04-25T14:10:22;3.70;;;1.48;;
79570;SDS011;69034;49.444;7.758;2023-04-25T14:14:23;5.32;;;1.88;;
79570;SDS011;69034;49.444;7.758;2023-04-25T14:18:24;8.50;;;2.28;;
79570;SDS011;69034;49.444;7.758;2023-04-25T14:22:25;4.20;;;1.70;;
79570;SDS011;69034;49.444;7.758;2023-04-25T14:26:26;5.70;;;2.08;;
79570;SDS011;69034;49.444;7.758;2023-04-25T14:30:26;4.72;;;1.90;;
79570;SDS011;69034;49.444;7.758;2023-04-25T14:34:27;4.20;;;1.77;;
79570;SDS011;69034;49.444;7.758;2023-04-25T14:38:28;4.20;;;1.73;;
79570;SDS011;69034;49.444;7.758;2023-04-25T14:42:29;4.70;;;1.48;;
79570;SDS011;69034;49.444;7.758;2023-04-25T14:46:30;7.05;;;1.70;;
79570;SDS011;69034;49.444;7.758;2023-04-25T14:50:30;4.05;;;1.60;;
79570;SDS011;69034;49.444;7.758;2023-04-25T14:54:31;4.78;;;1.65;;
79570;SDS011;69034;49.444;7.758;2023-04-25T14:58:32;5.30;;;1.77;;
79570;SDS011;69034;49.444;7.758;2023-04-25T15:02:32;6.40;;;1.75;;
79570;SDS011;69034;49.444;7.758;2023-04-25T15:06:34;5.55;;;1.38;;
79570;SDS011;69034;49.444;7.758;2023-04-25T15:10:35;5.30;;;1.60;;
79570;SDS011;69034;49.444;7.758;2023-04-25T15:14:36;3.10;;;1.20;;
79570;SDS011;69034;49.444;7.758;2023-04-25T15:18:36;3.28;;;1.33;;
79570;SDS011;69034;49.444;7.758;2023-04-25T15:22:38;5.78;;;1.70;;
79570;SDS011;69034;49.444;7.758;2023-04-25T15:26:40;3.80;;;1.60;;
79570;SDS011;69034;49.444;7.758;2023-04-25T15:30:40;2.88;;;1.30;;
79570;SDS011;69034;49.444;7.758;2023-04-25T15:34:41;5.78;;;1.70;;
79570;SDS011;69034;49.444;7.758;2023-04-25T15:38:42;5.57;;;1.88;;
79570;SDS011;69034;49.444;7.758;2023-04-25T15:46:46;4.75;;;1.60;;
79570;SDS011;69034;49.444;7.758;2023-04-25T15:50:47;3.83;;;1.50;;
79570;SDS011;69034;49.444;7.758;2023-04-25T15:54:48;9.27;;;2.25;;
79570;SDS011;69034;49.444;7.758;2023-04-25T15:58:48;3.25;;;1.42;;
79570;SDS011;69034;49.444;7.758;2023-04-25T16:02:50;4.95;;;1.58;;
79570;SDS011;69034;49.444;7.758;2023-04-25T16:06:50;7.40;;;1.77;;
79570;SDS011;69034;49.444;7.758;2023-04-25T16:10:51;7.10;;;2.40;;
79570;SDS011;69034;49.444;7.758;2023-04-25T16:14:51;6.25;;;1.90;;
79570;SDS011;69034;49.444;7.758;2023-04-25T16:18:52;7.95;;;2.13;;
79570;SDS011;69034;49.444;7.758;2023-04-25T16:22:53;5.82;;;1.85;;
79570;SDS011;69034;49.444;7.758;2023-04-25T16:26:53;6.05;;;2.13;;
79570;SDS011;69034;49.444;7.758;2023-04-25T16:30:54;6.40;;;2.55;;
79570;SDS011;69034;49.444;7.758;2023-04-25T16:34:55;7.57;;;1.77;;
79570;SDS011;69034;49.444;7.758;2023-04-25T16:38:55;5.22;;;1.88;;
79570;SDS011;69034;49.444;7.758;2023-04-25T16:42:56;4.97;;;1.90;;
79570;SDS011;69034;49.444;7.758;2023-04-25T16:46:57;7.28;;;2.20;;
79570;SDS011;69034;49.444;7.758;2023-04-25T16:50:57;4.55;;;1.63;;
79570;SDS011;69034;49.444;7.758;2023-04-25T16:54:58;4.68;;;1.73;;
79570;SDS011;69034;49.444;7.758;2023-04-25T16:58:59;5.63;;;1.90;;
79570;SDS011;69034;49.444;7.758;2023-04-25T17:02:59;8.07;;;2.50;;
79570;SDS011;69034;49.444;7.758;2023-04-25T17:07:00;4.38;;;2.22;;
79570;SDS011;69034;49.444;7.758;2023-04-25T17:11:00;6.07;;;2.70;;
79570;SDS011;69034;49.444;7.758;2023-04-25T17:15:02;4.22;;;2.05;;
79570;SDS011;69034;49.444;7.758;2023-04-25T17:19:04;6.65;;;2.10;;
79570;SDS011;69034;49.444;7.758;2023-04-25T17:23:05;5.68;;;1.98;;
79570;SDS011;69034;49.444;7.758;2023-04-25T17:27:06;2.58;;;1.17;;
79570;SDS011;69034;49.444;7.758;2023-04-25T17:31:07;4.00;;;1.40;;
79570;SDS011;69034;49.444;7.758;2023-04-25T17:35:08;7.78;;;1.90;;
79570;SDS011;69034;49.444;7.758;2023-04-25T17:39:09;3.83;;;1.65;;
79570;SDS011;69034;49.444;7.758;2023-04-25T17:43:10;7.28;;;1.92;;
79570;SDS011;69034;49.444;7.758;2023-04-25T17:47:10;3.58;;;1.50;;
79570;SDS011;69034;49.444;7.758;2023-04-25T17:51:11;8.48;;;3.50;;
79570;SDS011;69034;49.444;7.758;2023-04-25T17:55:12;4.07;;;1.60;;
79570;SDS011;69034;49.444;7.758;2023-04-25T17:59:13;4.30;;;1.52;;
79570;SDS011;69034;49.444;7.758;2023-04-25T18:03:14;4.90;;;1.30;;
79570;SDS011;69034;49.444;7.758;2023-04-25T18:07:15;3.72;;;1.40;;
79570;SDS011;69034;49.444;7.758;2023-04-25T18:11:15;7.93;;;1.60;;
79570;SDS011;69034;49.444;7.758;2023-04-25T18:15:16;3.30;;;1.13;;
79570;SDS011;69034;49.444;7.758;2023-04-25T18:19:17;6.68;;;1.70;;
79570;SDS011;69034;49.444;7.758;2023-04-25T18:23:20;2.45;;;1.08;;
79570;SDS011;69034;49.444;7.758;2023-04-25T18:27:21;3.80;;;1.25;;
79570;SDS011;69034;49.444;7.758;2023-04-25T18:31:21;4.10;;;1.25;;
79570;SDS011;69034;49.444;7.758;2023-04-25T18:35:24;4.78;;;1.23;;
79570;SDS011;69034;49.444;7.758;2023-04-25T18:39:26;4.00;;;1.73;;
79570;SDS011;69034;49.444;7.758;2023-04-25T18:43:27;4.43;;;1.23;;
79570;SDS011;69034;49.444;7.758;2023-04-25T18:47:27;6.10;;;1.48;;
79570;SDS011;69034;49.444;7.758;2023-04-25T18:51:28;5.15;;;1.50;;
79570;SDS011;69034;49.444;7.758;2023-04-25T18:55:30;2.58;;;1.20;;
79570;SDS011;69034;49.444;7.758;2023-04-25T18:59:31;4.05;;;1.85;;
79570;SDS011;69034;49.444;7.758;2023-04-25T19:03:32;2.47;;;1.17;;
79570;SDS011;69034;49.444;7.758;2023-04-25T19:07:33;6.53;;;1.38;;
79570;SDS011;69034;49.444;7.758;2023-04-25T19:11:36;4.82;;;1.73;;
79570;SDS011;69034;49.444;7.758;2023-04-25T19:15:37;4.25;;;2.05;;
79570;SDS011;69034;49.444;7.758;2023-04-25T19:19:38;4.32;;;1.50;;
79570;SDS011;69034;49.444;7.758;2023-04-25T19:23:39;4.78;;;1.50;;
79570;SDS011;69034;49.444;7.758;2023-04-25T19:27:40;6.38;;;2.13;;
79570;SDS011;69034;49.444;7.758;2023-04-25T19:31:42;8.48;;;2.03;;
79570;SDS011;69034;49.444;7.758;2023-04-25T19:35:44;4.82;;;2.42;;
79570;SDS011;69034;49.444;7.758;2023-04-25T19:39:45;6.57;;;2.47;;
79570;SDS011;69034;49.444;7.758;2023-04-25T19:43:47;2.47;;;1.50;;
79570;SDS011;69034;49.444;7.758;2023-04-25T19:47:47;5.15;;;1.92;;
79570;SDS011;69034;49.444;7.758;2023-04-25T19:51:48;6.75;;;1.90;;
79570;SDS011;69034;49.444;7.758;2023-04-25T19:55:50;4.60;;;2.00;;
79570;SDS011;69034;49.444;7.758;2023-04-25T19:59:50;4.03;;;1.63;;
79570;SDS011;69034;49.444;7.758;2023-04-25T20:03:51;7.25;;;1.90;;
79570;SDS011;69034;49.444;7.758;2023-04-25T20:07:51;4.25;;;1.50;;
79570;SDS011;69034;49.444;7.758;2023-04-25T20:11:52;4.47;;;1.60;;
79570;SDS011;69034;49.444;7.758;2023-04-25T20:15:53;6.88;;;1.88;;
79570;SDS011;69034;49.444;7.758;2023-04-25T20:19:53;2.45;;;1.17;;
79570;SDS011;69034;49.444;7.758;2023-04-25T20:23:55;3.33;;;1.48;;
79570;SDS011;69034;49.444;7.758;2023-04-25T20:27:56;5.85;;;1.58;;
79570;SDS011;69034;49.444;7.758;2023-04-25T20:31:56;4.32;;;2.05;;
79570;SDS011;69034;49.444;7.758;2023-04-25T20:35:58;3.45;;;1.50;;
79570;SDS011;69034;49.444;7.758;2023-04-25T20:39:59;4.82;;;1.83;;
79570;SDS011;69034;49.444;7.758;2023-04-25T20:44:01;6.40;;;1.95;;
79570;SDS011;69034;49.444;7.758;2023-04-25T20:48:02;5.50;;;2.28;;
79570;SDS011;69034;49.444;7.758;2023-04-25T20:52:04;4.75;;;1.70;;
79570;SDS011;69034;49.444;7.758;2023-04-25T20:56:04;5.03;;;2.28;;
79570;SDS011;69034;49.444;7.758;2023-04-25T21:00:05;5.75;;;2.10;;
79570;SDS011;69034;49.444;7.758;2023-04-25T21:04:26;3.80;;;1.38;;
79570;SDS011;69034;49.444;7.758;2023-04-25T21:08:26;3.03;;;1.35;;
79570;SDS011;69034;49.444;7.758;2023-04-25T21:12:27;6.10;;;2.03;;
79570;SDS011;69034;49.444;7.758;2023-04-25T21:16:27;3.88;;;1.85;;
79570;SDS011;69034;49.444;7.758;2023-04-25T21:20:31;6.47;;;2.33;;
79570;SDS011;69034;49.444;7.758;2023-04-25T21:24:32;7.93;;;2.40;;
79570;SDS011;69034;49.444;7.758;2023-04-25T21:28:33;5.35;;;2.25;;
79570;SDS011;69034;49.444;7.758;2023-04-25T21:32:34;5.60;;;1.77;;
79570;SDS011;69034;49.444;7.758;2023-04-25T21:36:35;7.40;;;2.95;;
79570;SDS011;69034;49.444;7.758;2023-04-25T21:40:36;10.23;;;3.20;;
79570;SDS011;69034;49.444;7.758;2023-04-25T21:44:36;7.30;;;2.90;;
79570;SDS011;69034;49.444;7.758;2023-04-25T21:48:37;4.45;;;1.85;;
79570;SDS011;69034;49.444;7.758;2023-04-25T21:52:37;7.25;;;1.77;;
79570;SDS011;69034;49.444;7.758;2023-04-25T21:56:38;3.67;;;1.80;;
79570;SDS011;69034;49.444;7.758;2023-04-25T22:00:39;3.55;;;1.42;;
79570;SDS011;69034;49.444;7.758;2023-04-25T22:04:41;4.38;;;2.15;;
79570;SDS011;69034;49.444;7.758;2023-04-25T22:08:42;6.03;;;1.95;;
79570;SDS011;69034;49.444;7.758;2023-04-25T22:12:43;9.57;;;1.80;;
79570;SDS011;69034;49.444;7.758;2023-04-25T22:16:44;4.38;;;1.55;;
79570;SDS011;69034;49.444;7.758;2023-04-25T22:20:44;3.95;;;1.85;;
79570;SDS011;69034;49.444;7.758;2023-04-25T22:24:45;3.35;;;1.20;;
79570;SDS011;69034;49.444;7.758;2023-04-25T22:28:48;4.53;;;1.50;;
79570;SDS011;69034;49.444;7.758;2023-04-25T22:32:50;8.95;;;1.98;;
79570;SDS011;69034;49.444;7.758;2023-04-25T22:36:51;5.72;;;1.90;;
79570;SDS011;69034;49.444;7.758;2023-04-25T22:40:52;4.72;;;1.50;;
79570;SDS011;69034;49.444;7.758;2023-04-25T22:44:52;3.95;;;1.48;;
79570;SDS011;69034;49.444;7.758;2023-04-25T22:48:53;5.18;;;1.92;;
79570;SDS011;69034;49.444;7.758;2023-04-25T22:52:53;6.07;;;1.80;;
79570;SDS011;69034;49.444;7.758;2023-04-25T22:56:54;5.82;;;1.85;;
79570;SDS011;69034;49.444;7.758;2023-04-25T23:00:56;5.70;;;2.00;;
79570;SDS011;69034;49.444;7.758;2023-04-25T23:04:57;4.35;;;1.40;;
79570;SDS011;69034;49.444;7.758;2023-04-25T23:08:59;3.13;;;1.50;;
79570;SDS011;69034;49.444;7.758;2023-04-25T23:12:59;4.65;;;1.30;;
79570;SDS011;69034;49.444;7.758;2023-04-25T23:17:00;4.38;;;1.70;;
79570;SDS011;69034;49.444;7.758;2023-04-25T23:21:01;10.60;;;1.80;;
79570;SDS011;69034;49.444;7.758;2023-04-25T23:25:03;7.28;;;1.40;;
79570;SDS011;69034;49.444;7.758;2023-04-25T23:29:06;3.78;;;1.20;;
79570;SDS011;69034;49.444;7.758;2023-04-25T23:33:07;3.72;;;1.67;;
79570;SDS011;69034;49.444;7.758;2023-04-25T23:37:08;3.10;;;1.10;;
79570;SDS011;69034;49.444;7.758;2023-04-25T23:41:09;3.15;;;1.33;;
79570;SDS011;69034;49.444;7.758;2023-04-25T23:45:10;2.72;;;1.05;;
79570;SDS011;69034;49.444;7.758;2023-04-25T23:49:11;3.95;;;1.30;;
79570;SDS011;69034;49.444;7.758;2023-04-25T23:53:12;3.13;;;1.40;;
79570;SDS011;69034;49.444;7.758;2023-04-25T23:57:12;2.80;;;1.02;;
